sensor_id;sensor_type;location;lat;lon;timestamp;P1;durP1;ratioP1;P2;durP2;ratioP2
70332;SDS011;57747;43.548;-5.704;2023-02-04T00:01:46;19.02;;;6.75;;
70332;SDS011;57747;43.548;-5.704;2023-02-04T00:04:17;21.67;;;6.80;;
70332;SDS011;57747;43.548;-5.704;2023-02-04T00:06:43;14.80;;;5.68;;
70332;SDS011;57747;43.548;-5.704;2023-02-04T00:09:08;27.83;;;8.25;;
70332;SDS011;57747;43.548;-5.704;2023-02-04T00:11:36;36.70;;;10.20;;
70332;SDS011;57747;43.548;-5.704;2023-02-04T00:14:04;19.98;;;8.52;;
70332;SDS011;57747;43.548;-5.704;2023-02-04T00:16:32;31.88;;;8.93;;
70332;SDS011;57747;43.548;-5.704;2023-02-04T00:19:00;20.35;;;8.20;;
70332;SDS011;57747;43.548;-5.704;2023-02-04T00:21:25;16.50;;;7.07;;
70332;SDS011;57747;43.548;-5.704;2023-02-04T00:23:51;20.90;;;6.88;;
70332;SDS011;57747;43.548;-5.704;2023-02-04T00:26:16;12.40;;;5.40;;
70332;SDS011;57747;43.548;-5.704;2023-02-04T00:28:44;25.90;;;8.05;;
70332;SDS011;57747;43.548;-5.704;2023-02-04T00:31:10;24.33;;;6.72;;
70332;SDS011;57747;43.548;-5.704;2023-02-04T00:33:35;22.33;;;7.38;;
70332;SDS011;57747;43.548;-5.704;2023-02-04T00:36:01;22.83;;;6.97;;
70332;SDS011;57747;43.548;-5.704;2023-02-04T00:38:26;60.80;;;9.68;;
70332;SDS011;57747;43.548;-5.704;2023-02-04T00:40:51;22.00;;;7.88;;
70332;SDS011;57747;43.548;-5.704;2023-02-04T00:43:19;46.55;;;8.60;;
70332;SDS011;57747;43.548;-5.704;2023-02-04T00:45:44;46.70;;;8.65;;
70332;SDS011;57747;43.548;-5.704;2023-02-04T00:48:18;36.45;;;8.68;;
70332;SDS011;57747;43.548;-5.704;2023-02-04T00:50:45;40.22;;;10.13;;
70332;SDS011;57747;43.548;-5.704;2023-02-04T00:53:11;40.90;;;8.32;;
70332;SDS011;57747;43.548;-5.704;2023-02-04T00:55:36;26.65;;;6.55;;
70332;SDS011;57747;43.548;-5.704;2023-02-04T00:58:01;27.75;;;6.97;;
70332;SDS011;57747;43.548;-5.704;2023-02-04T01:00:27;27.45;;;7.18;;
70332;SDS011;57747;43.548;-5.704;2023-02-04T01:02:52;52.67;;;8.73;;
70332;SDS011;57747;43.548;-5.704;2023-02-04T01:05:18;35.28;;;7.20;;
70332;SDS011;57747;43.548;-5.704;2023-02-04T01:07:43;26.00;;;8.32;;
70332;SDS011;57747;43.548;-5.704;2023-02-04T01:10:11;39.20;;;8.38;;
70332;SDS011;57747;43.548;-5.704;2023-02-04T01:12:36;24.38;;;7.32;;
70332;SDS011;57747;43.548;-5.704;2023-02-04T01:15:02;68.53;;;10.98;;
70332;SDS011;57747;43.548;-5.704;2023-02-04T01:17:27;58.78;;;11.13;;
70332;SDS011;57747;43.548;-5.704;2023-02-04T01:19:52;46.45;;;8.70;;
70332;SDS011;57747;43.548;-5.704;2023-02-04T01:22:18;56.35;;;10.75;;
70332;SDS011;57747;43.548;-5.704;2023-02-04T01:24:43;33.00;;;8.48;;
70332;SDS011;57747;43.548;-5.704;2023-02-04T01:27:08;53.20;;;7.80;;
70332;SDS011;57747;43.548;-5.704;2023-02-04T01:29:34;25.52;;;7.53;;
70332;SDS011;57747;43.548;-5.704;2023-02-04T01:32:01;32.22;;;7.60;;
70332;SDS011;57747;43.548;-5.704;2023-02-04T01:34:27;29.52;;;9.57;;
70332;SDS011;57747;43.548;-5.704;2023-02-04T01:36:52;17.92;;;8.07;;
70332;SDS011;57747;43.548;-5.704;2023-02-04T01:39:17;23.92;;;7.40;;
70332;SDS011;57747;43.548;-5.704;2023-02-04T01:41:43;55.70;;;8.02;;
70332;SDS011;57747;43.548;-5.704;2023-02-04T01:44:11;35.35;;;7.78;;
70332;SDS011;57747;43.548;-5.704;2023-02-04T01:46:37;25.67;;;6.28;;
70332;SDS011;57747;43.548;-5.704;2023-02-04T01:49:03;38.17;;;7.50;;
70332;SDS011;57747;43.548;-5.704;2023-02-04T01:51:29;34.90;;;7.90;;
70332;SDS011;57747;43.548;-5.704;2023-02-04T01:53:56;19.05;;;7.85;;
70332;SDS011;57747;43.548;-5.704;2023-02-04T01:56:22;38.85;;;7.38;;
70332;SDS011;57747;43.548;-5.704;2023-02-04T01:58:48;33.05;;;8.35;;
70332;SDS011;57747;43.548;-5.704;2023-02-04T02:01:32;23.45;;;7.07;;
70332;SDS011;57747;43.548;-5.704;2023-02-04T02:03:57;21.65;;;8.02;;
70332;SDS011;57747;43.548;-5.704;2023-02-04T02:06:23;25.17;;;9.32;;
70332;SDS011;57747;43.548;-5.704;2023-02-04T02:08:48;20.33;;;7.25;;
70332;SDS011;57747;43.548;-5.704;2023-02-04T02:11:13;16.58;;;6.05;;
70332;SDS011;57747;43.548;-5.704;2023-02-04T02:13:39;18.67;;;6.20;;
70332;SDS011;57747;43.548;-5.704;2023-02-04T02:16:04;15.27;;;7.47;;
70332;SDS011;57747;43.548;-5.704;2023-02-04T02:18:30;23.73;;;7.00;;
70332;SDS011;57747;43.548;-5.704;2023-02-04T02:20:56;51.83;;;10.25;;
70332;SDS011;57747;43.548;-5.704;2023-02-04T02:23:43;28.00;;;8.13;;
70332;SDS011;57747;43.548;-5.704;2023-02-04T02:26:10;16.95;;;9.43;;
70332;SDS011;57747;43.548;-5.704;2023-02-04T02:28:38;31.65;;;7.70;;
70332;SDS011;57747;43.548;-5.704;2023-02-04T02:31:03;29.58;;;9.60;;
70332;SDS011;57747;43.548;-5.704;2023-02-04T02:33:29;16.98;;;8.98;;
70332;SDS011;57747;43.548;-5.704;2023-02-04T02:35:54;23.95;;;9.45;;
70332;SDS011;57747;43.548;-5.704;2023-02-04T02:38:19;28.60;;;9.15;;
70332;SDS011;57747;43.548;-5.704;2023-02-04T02:40:48;29.48;;;8.82;;
70332;SDS011;57747;43.548;-5.704;2023-02-04T02:43:16;18.15;;;8.80;;
70332;SDS011;57747;43.548;-5.704;2023-02-04T02:45:45;14.00;;;6.47;;
70332;SDS011;57747;43.548;-5.704;2023-02-04T02:48:10;26.35;;;8.48;;
70332;SDS011;57747;43.548;-5.704;2023-02-04T02:50:36;31.73;;;7.22;;
70332;SDS011;57747;43.548;-5.704;2023-02-04T02:53:01;29.33;;;7.53;;
70332;SDS011;57747;43.548;-5.704;2023-02-04T02:55:28;14.52;;;6.93;;
70332;SDS011;57747;43.548;-5.704;2023-02-04T02:57:54;20.55;;;9.18;;
70332;SDS011;57747;43.548;-5.704;2023-02-04T03:00:21;18.02;;;7.95;;
70332;SDS011;57747;43.548;-5.704;2023-02-04T03:05:24;46.58;;;11.55;;
70332;SDS011;57747;43.548;-5.704;2023-02-04T03:07:49;33.28;;;11.68;;
70332;SDS011;57747;43.548;-5.704;2023-02-04T03:10:15;28.45;;;10.23;;
70332;SDS011;57747;43.548;-5.704;2023-02-04T03:12:41;45.08;;;9.23;;
70332;SDS011;57747;43.548;-5.704;2023-02-04T03:15:09;25.13;;;8.85;;
70332;SDS011;57747;43.548;-5.704;2023-02-04T03:17:35;26.77;;;9.77;;
70332;SDS011;57747;43.548;-5.704;2023-02-04T03:20:00;24.48;;;8.57;;
70332;SDS011;57747;43.548;-5.704;2023-02-04T03:22:26;39.80;;;9.68;;
70332;SDS011;57747;43.548;-5.704;2023-02-04T03:24:51;27.70;;;8.95;;
70332;SDS011;57747;43.548;-5.704;2023-02-04T03:27:17;37.22;;;10.05;;
70332;SDS011;57747;43.548;-5.704;2023-02-04T03:29:43;31.70;;;10.23;;
70332;SDS011;57747;43.548;-5.704;2023-02-04T03:32:09;21.08;;;8.30;;
70332;SDS011;57747;43.548;-5.704;2023-02-04T03:34:35;25.55;;;9.07;;
70332;SDS011;57747;43.548;-5.704;2023-02-04T03:37:02;35.33;;;9.15;;
70332;SDS011;57747;43.548;-5.704;2023-02-04T03:39:27;13.40;;;6.88;;
70332;SDS011;57747;43.548;-5.704;2023-02-04T03:41:53;19.33;;;8.95;;
70332;SDS011;57747;43.548;-5.704;2023-02-04T03:44:18;43.15;;;10.82;;
70332;SDS011;57747;43.548;-5.704;2023-02-04T03:46:45;42.13;;;11.40;;
70332;SDS011;57747;43.548;-5.704;2023-02-04T03:49:10;27.20;;;9.43;;
70332;SDS011;57747;43.548;-5.704;2023-02-04T03:51:35;23.48;;;10.25;;
70332;SDS011;57747;43.548;-5.704;2023-02-04T03:54:01;31.10;;;10.95;;
70332;SDS011;57747;43.548;-5.704;2023-02-04T03:56:26;21.58;;;9.98;;
70332;SDS011;57747;43.548;-5.704;2023-02-04T03:58:51;42.13;;;11.48;;
70332;SDS011;57747;43.548;-5.704;2023-02-04T04:01:17;22.27;;;8.85;;
70332;SDS011;57747;43.548;-5.704;2023-02-04T04:03:42;33.42;;;11.32;;
70332;SDS011;57747;43.548;-5.704;2023-02-04T04:06:07;46.22;;;11.85;;
70332;SDS011;57747;43.548;-5.704;2023-02-04T04:08:35;55.33;;;11.80;;
70332;SDS011;57747;43.548;-5.704;2023-02-04T04:11:03;39.85;;;10.93;;
70332;SDS011;57747;43.548;-5.704;2023-02-04T04:13:28;29.75;;;9.93;;
70332;SDS011;57747;43.548;-5.704;2023-02-04T04:15:53;41.50;;;8.88;;
70332;SDS011;57747;43.548;-5.704;2023-02-04T04:18:19;59.75;;;13.65;;
70332;SDS011;57747;43.548;-5.704;2023-02-04T04:20:44;46.58;;;9.77;;
70332;SDS011;57747;43.548;-5.704;2023-02-04T04:23:12;25.90;;;11.45;;
70332;SDS011;57747;43.548;-5.704;2023-02-04T04:25:38;26.40;;;10.73;;
70332;SDS011;57747;43.548;-5.704;2023-02-04T04:28:03;40.33;;;11.30;;
70332;SDS011;57747;43.548;-5.704;2023-02-04T04:30:28;27.60;;;11.20;;
70332;SDS011;57747;43.548;-5.704;2023-02-04T04:32:54;37.45;;;12.30;;
70332;SDS011;57747;43.548;-5.704;2023-02-04T04:35:19;18.70;;;9.32;;
70332;SDS011;57747;43.548;-5.704;2023-02-04T04:37:47;25.83;;;10.35;;
70332;SDS011;57747;43.548;-5.704;2023-02-04T04:40:12;40.60;;;10.35;;
70332;SDS011;57747;43.548;-5.704;2023-02-04T04:42:41;43.47;;;10.85;;
70332;SDS011;57747;43.548;-5.704;2023-02-04T04:45:07;37.08;;;11.82;;
70332;SDS011;57747;43.548;-5.704;2023-02-04T04:47:33;42.50;;;11.13;;
70332;SDS011;57747;43.548;-5.704;2023-02-04T04:49:58;28.40;;;11.45;;
70332;SDS011;57747;43.548;-5.704;2023-02-04T04:52:23;28.20;;;10.13;;
70332;SDS011;57747;43.548;-5.704;2023-02-04T04:54:52;28.35;;;11.43;;
70332;SDS011;57747;43.548;-5.704;2023-02-04T04:57:17;30.15;;;9.77;;
70332;SDS011;57747;43.548;-5.704;2023-02-04T05:02:35;29.70;;;12.73;;
70332;SDS011;57747;43.548;-5.704;2023-02-04T05:05:01;43.45;;;11.50;;
70332;SDS011;57747;43.548;-5.704;2023-02-04T05:07:26;38.90;;;9.30;;
70332;SDS011;57747;43.548;-5.704;2023-02-04T05:09:52;29.10;;;10.50;;
70332;SDS011;57747;43.548;-5.704;2023-02-04T05:12:17;24.70;;;11.02;;
70332;SDS011;57747;43.548;-5.704;2023-02-04T05:14:42;29.35;;;10.00;;
70332;SDS011;57747;43.548;-5.704;2023-02-04T05:17:08;23.08;;;9.90;;
70332;SDS011;57747;43.548;-5.704;2023-02-04T05:19:33;33.42;;;9.77;;
70332;SDS011;57747;43.548;-5.704;2023-02-04T05:21:59;40.65;;;10.00;;
70332;SDS011;57747;43.548;-5.704;2023-02-04T05:24:26;42.90;;;9.73;;
70332;SDS011;57747;43.548;-5.704;2023-02-04T05:26:54;28.92;;;9.60;;
70332;SDS011;57747;43.548;-5.704;2023-02-04T05:29:19;31.42;;;9.48;;
70332;SDS011;57747;43.548;-5.704;2023-02-04T05:31:44;23.08;;;8.18;;
70332;SDS011;57747;43.548;-5.704;2023-02-04T05:34:10;38.55;;;9.23;;
70332;SDS011;57747;43.548;-5.704;2023-02-04T05:36:35;29.65;;;8.30;;
70332;SDS011;57747;43.548;-5.704;2023-02-04T05:39:01;31.13;;;8.77;;
70332;SDS011;57747;43.548;-5.704;2023-02-04T05:41:26;26.25;;;10.18;;
70332;SDS011;57747;43.548;-5.704;2023-02-04T05:43:51;24.20;;;8.63;;
70332;SDS011;57747;43.548;-5.704;2023-02-04T05:46:17;16.48;;;8.32;;
70332;SDS011;57747;43.548;-5.704;2023-02-04T05:48:42;24.23;;;9.00;;
70332;SDS011;57747;43.548;-5.704;2023-02-04T05:51:08;31.85;;;8.82;;
70332;SDS011;57747;43.548;-5.704;2023-02-04T05:53:33;24.27;;;8.38;;
70332;SDS011;57747;43.548;-5.704;2023-02-04T05:55:58;21.10;;;7.68;;
70332;SDS011;57747;43.548;-5.704;2023-02-04T05:58:24;51.42;;;8.60;;
70332;SDS011;57747;43.548;-5.704;2023-02-04T06:00:49;19.67;;;7.30;;
70332;SDS011;57747;43.548;-5.704;2023-02-04T06:03:15;19.88;;;7.38;;
70332;SDS011;57747;43.548;-5.704;2023-02-04T06:05:43;32.80;;;8.13;;
70332;SDS011;57747;43.548;-5.704;2023-02-04T06:08:08;38.30;;;8.77;;
70332;SDS011;57747;43.548;-5.704;2023-02-04T06:10:37;19.00;;;7.85;;
70332;SDS011;57747;43.548;-5.704;2023-02-04T06:13:05;27.63;;;8.50;;
70332;SDS011;57747;43.548;-5.704;2023-02-04T06:15:30;21.60;;;8.57;;
70332;SDS011;57747;43.548;-5.704;2023-02-04T06:17:56;39.40;;;9.02;;
70332;SDS011;57747;43.548;-5.704;2023-02-04T06:20:22;31.42;;;8.57;;
70332;SDS011;57747;43.548;-5.704;2023-02-04T06:22:47;36.67;;;9.35;;
70332;SDS011;57747;43.548;-5.704;2023-02-04T06:25:16;40.33;;;11.00;;
70332;SDS011;57747;43.548;-5.704;2023-02-04T06:27:44;36.22;;;10.30;;
70332;SDS011;57747;43.548;-5.704;2023-02-04T06:30:09;56.25;;;11.05;;
70332;SDS011;57747;43.548;-5.704;2023-02-04T06:32:35;56.13;;;11.63;;
70332;SDS011;57747;43.548;-5.704;2023-02-04T06:35:03;39.35;;;10.30;;
70332;SDS011;57747;43.548;-5.704;2023-02-04T06:37:31;31.80;;;10.68;;
70332;SDS011;57747;43.548;-5.704;2023-02-04T06:39:56;26.70;;;9.48;;
70332;SDS011;57747;43.548;-5.704;2023-02-04T06:42:22;28.13;;;10.95;;
70332;SDS011;57747;43.548;-5.704;2023-02-04T06:44:49;50.38;;;13.80;;
70332;SDS011;57747;43.548;-5.704;2023-02-04T06:47:14;61.33;;;12.50;;
70332;SDS011;57747;43.548;-5.704;2023-02-04T06:49:40;55.97;;;12.07;;
70332;SDS011;57747;43.548;-5.704;2023-02-04T06:52:05;81.32;;;14.20;;
70332;SDS011;57747;43.548;-5.704;2023-02-04T06:54:30;41.13;;;12.07;;
70332;SDS011;57747;43.548;-5.704;2023-02-04T06:56:56;42.38;;;11.50;;
70332;SDS011;57747;43.548;-5.704;2023-02-04T06:59:27;37.83;;;10.82;;
70332;SDS011;57747;43.548;-5.704;2023-02-04T07:01:56;41.95;;;11.27;;
70332;SDS011;57747;43.548;-5.704;2023-02-04T07:04:21;37.75;;;11.43;;
70332;SDS011;57747;43.548;-5.704;2023-02-04T07:06:47;32.08;;;10.27;;
70332;SDS011;57747;43.548;-5.704;2023-02-04T07:09:12;32.78;;;12.93;;
70332;SDS011;57747;43.548;-5.704;2023-02-04T07:11:38;26.67;;;11.43;;
70332;SDS011;57747;43.548;-5.704;2023-02-04T07:14:03;39.78;;;11.52;;
70332;SDS011;57747;43.548;-5.704;2023-02-04T07:16:28;25.88;;;11.75;;
70332;SDS011;57747;43.548;-5.704;2023-02-04T07:18:54;39.80;;;13.27;;
70332;SDS011;57747;43.548;-5.704;2023-02-04T07:21:19;31.73;;;10.65;;
70332;SDS011;57747;43.548;-5.704;2023-02-04T07:23:44;27.25;;;10.15;;
70332;SDS011;57747;43.548;-5.704;2023-02-04T07:26:12;27.38;;;11.70;;
70332;SDS011;57747;43.548;-5.704;2023-02-04T07:28:40;33.70;;;11.23;;
70332;SDS011;57747;43.548;-5.704;2023-02-04T07:31:06;33.83;;;11.02;;
70332;SDS011;57747;43.548;-5.704;2023-02-04T07:33:31;25.25;;;12.40;;
70332;SDS011;57747;43.548;-5.704;2023-02-04T07:35:57;26.10;;;12.35;;
70332;SDS011;57747;43.548;-5.704;2023-02-04T07:38:24;23.30;;;10.82;;
70332;SDS011;57747;43.548;-5.704;2023-02-04T07:40:50;48.97;;;10.32;;
70332;SDS011;57747;43.548;-5.704;2023-02-04T07:43:18;22.80;;;9.13;;
70332;SDS011;57747;43.548;-5.704;2023-02-04T07:45:45;37.55;;;10.88;;
70332;SDS011;57747;43.548;-5.704;2023-02-04T07:48:11;31.23;;;12.25;;
70332;SDS011;57747;43.548;-5.704;2023-02-04T07:50:36;41.40;;;11.93;;
70332;SDS011;57747;43.548;-5.704;2023-02-04T07:53:03;33.17;;;8.68;;
70332;SDS011;57747;43.548;-5.704;2023-02-04T07:55:29;36.20;;;8.52;;
70332;SDS011;57747;43.548;-5.704;2023-02-04T07:57:57;35.05;;;8.32;;
70332;SDS011;57747;43.548;-5.704;2023-02-04T08:00:23;34.65;;;10.65;;
70332;SDS011;57747;43.548;-5.704;2023-02-04T08:02:49;25.95;;;11.20;;
70332;SDS011;57747;43.548;-5.704;2023-02-04T08:05:14;21.83;;;10.43;;
70332;SDS011;57747;43.548;-5.704;2023-02-04T08:07:40;29.13;;;8.50;;
70332;SDS011;57747;43.548;-5.704;2023-02-04T08:10:09;42.88;;;9.35;;
70332;SDS011;57747;43.548;-5.704;2023-02-04T08:12:35;31.00;;;10.32;;
70332;SDS011;57747;43.548;-5.704;2023-02-04T08:15:03;29.77;;;10.68;;
70332;SDS011;57747;43.548;-5.704;2023-02-04T08:17:30;41.78;;;8.23;;
70332;SDS011;57747;43.548;-5.704;2023-02-04T08:19:56;20.35;;;9.05;;
70332;SDS011;57747;43.548;-5.704;2023-02-04T08:22:21;31.83;;;10.10;;
70332;SDS011;57747;43.548;-5.704;2023-02-04T08:24:47;32.35;;;10.45;;
70332;SDS011;57747;43.548;-5.704;2023-02-04T08:27:12;38.35;;;10.07;;
70332;SDS011;57747;43.548;-5.704;2023-02-04T08:29:38;31.23;;;10.50;;
70332;SDS011;57747;43.548;-5.704;2023-02-04T08:32:03;32.80;;;12.30;;
70332;SDS011;57747;43.548;-5.704;2023-02-04T08:34:29;29.52;;;10.35;;
70332;SDS011;57747;43.548;-5.704;2023-02-04T08:36:55;34.58;;;10.93;;
70332;SDS011;57747;43.548;-5.704;2023-02-04T08:39:21;30.63;;;9.00;;
70332;SDS011;57747;43.548;-5.704;2023-02-04T08:44:45;21.63;;;8.63;;
70332;SDS011;57747;43.548;-5.704;2023-02-04T08:47:10;17.67;;;7.88;;
70332;SDS011;57747;43.548;-5.704;2023-02-04T08:49:36;55.03;;;23.17;;
70332;SDS011;57747;43.548;-5.704;2023-02-04T08:52:04;36.65;;;14.50;;
70332;SDS011;57747;43.548;-5.704;2023-02-04T08:54:30;33.47;;;13.02;;
70332;SDS011;57747;43.548;-5.704;2023-02-04T08:56:56;23.25;;;8.70;;
70332;SDS011;57747;43.548;-5.704;2023-02-04T08:59:23;27.33;;;8.52;;
70332;SDS011;57747;43.548;-5.704;2023-02-04T09:01:50;33.15;;;8.00;;
70332;SDS011;57747;43.548;-5.704;2023-02-04T09:04:20;17.40;;;8.13;;
70332;SDS011;57747;43.548;-5.704;2023-02-04T09:06:48;13.63;;;7.70;;
70332;SDS011;57747;43.548;-5.704;2023-02-04T09:09:16;20.83;;;9.13;;
70332;SDS011;57747;43.548;-5.704;2023-02-04T09:11:42;21.52;;;9.02;;
70332;SDS011;57747;43.548;-5.704;2023-02-04T09:14:07;25.55;;;8.88;;
70332;SDS011;57747;43.548;-5.704;2023-02-04T09:16:33;27.80;;;7.82;;
70332;SDS011;57747;43.548;-5.704;2023-02-04T09:18:58;18.48;;;6.25;;
70332;SDS011;57747;43.548;-5.704;2023-02-04T09:21:24;17.55;;;6.55;;
70332;SDS011;57747;43.548;-5.704;2023-02-04T09:23:50;16.42;;;7.25;;
70332;SDS011;57747;43.548;-5.704;2023-02-04T09:26:18;20.77;;;7.03;;
70332;SDS011;57747;43.548;-5.704;2023-02-04T09:28:44;11.98;;;5.82;;
70332;SDS011;57747;43.548;-5.704;2023-02-04T09:31:13;12.85;;;5.95;;
70332;SDS011;57747;43.548;-5.704;2023-02-04T09:33:38;10.90;;;5.88;;
70332;SDS011;57747;43.548;-5.704;2023-02-04T09:36:04;21.85;;;7.63;;
70332;SDS011;57747;43.548;-5.704;2023-02-04T09:38:29;26.42;;;7.97;;
70332;SDS011;57747;43.548;-5.704;2023-02-04T09:40:56;18.55;;;8.00;;
70332;SDS011;57747;43.548;-5.704;2023-02-04T09:43:25;27.38;;;8.90;;
70332;SDS011;57747;43.548;-5.704;2023-02-04T09:45:52;32.33;;;9.40;;
70332;SDS011;57747;43.548;-5.704;2023-02-04T09:48:17;23.92;;;8.90;;
70332;SDS011;57747;43.548;-5.704;2023-02-04T09:50:43;31.00;;;10.32;;
70332;SDS011;57747;43.548;-5.704;2023-02-04T09:53:10;19.38;;;8.82;;
70332;SDS011;57747;43.548;-5.704;2023-02-04T09:55:38;26.13;;;9.63;;
70332;SDS011;57747;43.548;-5.704;2023-02-04T09:58:11;27.10;;;7.00;;
70332;SDS011;57747;43.548;-5.704;2023-02-04T10:00:38;22.83;;;8.18;;
70332;SDS011;57747;43.548;-5.704;2023-02-04T10:03:08;20.75;;;8.52;;
70332;SDS011;57747;43.548;-5.704;2023-02-04T10:05:40;18.70;;;6.75;;
70332;SDS011;57747;43.548;-5.704;2023-02-04T10:08:16;21.33;;;7.25;;
70332;SDS011;57747;43.548;-5.704;2023-02-04T10:10:43;21.52;;;6.35;;
70332;SDS011;57747;43.548;-5.704;2023-02-04T10:13:13;15.65;;;7.70;;
70332;SDS011;57747;43.548;-5.704;2023-02-04T10:15:43;20.70;;;8.48;;
70332;SDS011;57747;43.548;-5.704;2023-02-04T10:18:11;21.08;;;6.88;;
70332;SDS011;57747;43.548;-5.704;2023-02-04T10:20:40;13.07;;;6.28;;
70332;SDS011;57747;43.548;-5.704;2023-02-04T10:23:08;12.15;;;6.10;;
70332;SDS011;57747;43.548;-5.704;2023-02-04T10:25:34;9.55;;;5.10;;
70332;SDS011;57747;43.548;-5.704;2023-02-04T10:28:00;17.38;;;5.30;;
70332;SDS011;57747;43.548;-5.704;2023-02-04T10:30:37;11.07;;;4.68;;
70332;SDS011;57747;43.548;-5.704;2023-02-04T10:33:20;8.50;;;4.40;;
70332;SDS011;57747;43.548;-5.704;2023-02-04T10:35:49;13.93;;;5.40;;
70332;SDS011;57747;43.548;-5.704;2023-02-04T10:38:15;19.33;;;5.47;;
70332;SDS011;57747;43.548;-5.704;2023-02-04T10:40:44;12.88;;;4.82;;
70332;SDS011;57747;43.548;-5.704;2023-02-04T10:49:36;9.48;;;3.90;;
70332;SDS011;57747;43.548;-5.704;2023-02-04T10:52:05;10.63;;;3.70;;
70332;SDS011;57747;43.548;-5.704;2023-02-04T10:54:40;12.75;;;4.35;;
70332;SDS011;57747;43.548;-5.704;2023-02-04T10:59:31;14.07;;;4.28;;
70332;SDS011;57747;43.548;-5.704;2023-02-04T11:01:57;6.45;;;2.33;;
70332;SDS011;57747;43.548;-5.704;2023-02-04T11:04:23;7.88;;;2.30;;
70332;SDS011;57747;43.548;-5.704;2023-02-04T11:06:50;8.27;;;2.40;;
70332;SDS011;57747;43.548;-5.704;2023-02-04T11:09:16;5.45;;;2.45;;
70332;SDS011;57747;43.548;-5.704;2023-02-04T11:11:48;5.30;;;2.42;;
70332;SDS011;57747;43.548;-5.704;2023-02-04T11:14:21;4.00;;;1.92;;
70332;SDS011;57747;43.548;-5.704;2023-02-04T11:16:47;3.47;;;1.60;;
70332;SDS011;57747;43.548;-5.704;2023-02-04T11:19:13;4.43;;;2.08;;
70332;SDS011;57747;43.548;-5.704;2023-02-04T11:21:41;10.68;;;1.83;;
70332;SDS011;57747;43.548;-5.704;2023-02-04T11:26:49;10.63;;;2.35;;
70332;SDS011;57747;43.548;-5.704;2023-02-04T11:31:42;5.43;;;1.90;;
70332;SDS011;57747;43.548;-5.704;2023-02-04T11:36:56;7.88;;;2.47;;
70332;SDS011;57747;43.548;-5.704;2023-02-04T11:39:33;7.05;;;2.50;;
70332;SDS011;57747;43.548;-5.704;2023-02-04T11:42:04;5.70;;;2.60;;
70332;SDS011;57747;43.548;-5.704;2023-02-04T11:44:30;3.22;;;1.90;;
70332;SDS011;57747;43.548;-5.704;2023-02-04T11:46:56;6.57;;;2.58;;
70332;SDS011;57747;43.548;-5.704;2023-02-04T11:49:24;5.40;;;1.83;;
70332;SDS011;57747;43.548;-5.704;2023-02-04T11:51:50;8.13;;;2.60;;
70332;SDS011;57747;43.548;-5.704;2023-02-04T11:54:16;12.18;;;2.63;;
70332;SDS011;57747;43.548;-5.704;2023-02-04T11:56:43;6.78;;;2.33;;
70332;SDS011;57747;43.548;-5.704;2023-02-04T11:59:09;8.57;;;2.33;;
70332;SDS011;57747;43.548;-5.704;2023-02-04T12:01:35;6.65;;;2.40;;
70332;SDS011;57747;43.548;-5.704;2023-02-04T12:04:02;7.68;;;2.75;;
70332;SDS011;57747;43.548;-5.704;2023-02-04T12:06:30;4.43;;;1.90;;
70332;SDS011;57747;43.548;-5.704;2023-02-04T12:09:18;6.85;;;2.40;;
70332;SDS011;57747;43.548;-5.704;2023-02-04T12:11:53;4.05;;;2.58;;
70332;SDS011;57747;43.548;-5.704;2023-02-04T12:14:18;9.70;;;2.88;;
70332;SDS011;57747;43.548;-5.704;2023-02-04T12:16:47;4.70;;;2.13;;
70332;SDS011;57747;43.548;-5.704;2023-02-04T12:19:15;5.53;;;2.42;;
70332;SDS011;57747;43.548;-5.704;2023-02-04T12:21:40;10.13;;;2.30;;
70332;SDS011;57747;43.548;-5.704;2023-02-04T12:24:06;4.50;;;1.92;;
70332;SDS011;57747;43.548;-5.704;2023-02-04T12:26:31;6.25;;;2.22;;
70332;SDS011;57747;43.548;-5.704;2023-02-04T12:28:57;7.03;;;2.70;;
70332;SDS011;57747;43.548;-5.704;2023-02-04T12:31:25;7.75;;;2.45;;
70332;SDS011;57747;43.548;-5.704;2023-02-04T12:33:50;8.23;;;2.42;;
70332;SDS011;57747;43.548;-5.704;2023-02-04T12:36:20;5.68;;;2.72;;
70332;SDS011;57747;43.548;-5.704;2023-02-04T12:38:46;7.88;;;2.78;;
70332;SDS011;57747;43.548;-5.704;2023-02-04T12:41:11;6.63;;;2.83;;
70332;SDS011;57747;43.548;-5.704;2023-02-04T12:43:37;6.60;;;2.60;;
70332;SDS011;57747;43.548;-5.704;2023-02-04T12:46:02;4.90;;;2.75;;
70332;SDS011;57747;43.548;-5.704;2023-02-04T12:48:30;7.93;;;2.47;;
70332;SDS011;57747;43.548;-5.704;2023-02-04T12:50:55;6.13;;;2.05;;
70332;SDS011;57747;43.548;-5.704;2023-02-04T12:53:21;5.70;;;2.25;;
70332;SDS011;57747;43.548;-5.704;2023-02-04T12:55:46;7.07;;;2.22;;
70332;SDS011;57747;43.548;-5.704;2023-02-04T12:58:11;7.95;;;2.53;;
70332;SDS011;57747;43.548;-5.704;2023-02-04T13:00:37;7.55;;;2.30;;
70332;SDS011;57747;43.548;-5.704;2023-02-04T13:03:05;9.63;;;2.10;;
70332;SDS011;57747;43.548;-5.704;2023-02-04T13:05:33;8.98;;;3.13;;
70332;SDS011;57747;43.548;-5.704;2023-02-04T13:08:00;3.03;;;1.90;;
70332;SDS011;57747;43.548;-5.704;2023-02-04T13:10:25;5.75;;;2.20;;
70332;SDS011;57747;43.548;-5.704;2023-02-04T13:12:50;8.68;;;2.45;;
70332;SDS011;57747;43.548;-5.704;2023-02-04T13:15:16;4.60;;;2.22;;
70332;SDS011;57747;43.548;-5.704;2023-02-04T13:17:41;3.35;;;2.20;;
70332;SDS011;57747;43.548;-5.704;2023-02-04T13:20:07;2.78;;;1.77;;
70332;SDS011;57747;43.548;-5.704;2023-02-04T13:22:33;10.55;;;3.08;;
70332;SDS011;57747;43.548;-5.704;2023-02-04T13:24:58;11.25;;;2.70;;
70332;SDS011;57747;43.548;-5.704;2023-02-04T13:27:23;8.63;;;2.83;;
70332;SDS011;57747;43.548;-5.704;2023-02-04T13:29:49;12.70;;;3.35;;
70332;SDS011;57747;43.548;-5.704;2023-02-04T13:32:14;5.20;;;2.50;;
70332;SDS011;57747;43.548;-5.704;2023-02-04T13:34:40;6.55;;;2.83;;
70332;SDS011;57747;43.548;-5.704;2023-02-04T13:37:05;6.60;;;2.28;;
70332;SDS011;57747;43.548;-5.704;2023-02-04T13:39:31;8.65;;;2.50;;
70332;SDS011;57747;43.548;-5.704;2023-02-04T13:41:56;5.60;;;2.78;;
70332;SDS011;57747;43.548;-5.704;2023-02-04T13:44:21;3.47;;;2.05;;
70332;SDS011;57747;43.548;-5.704;2023-02-04T13:46:47;10.68;;;3.28;;
70332;SDS011;57747;43.548;-5.704;2023-02-04T13:49:12;7.18;;;2.63;;
70332;SDS011;57747;43.548;-5.704;2023-02-04T13:51:37;5.90;;;2.60;;
70332;SDS011;57747;43.548;-5.704;2023-02-04T13:54:03;4.88;;;2.05;;
70332;SDS011;57747;43.548;-5.704;2023-02-04T13:56:28;14.68;;;3.25;;
70332;SDS011;57747;43.548;-5.704;2023-02-04T13:58:57;6.90;;;2.13;;
70332;SDS011;57747;43.548;-5.704;2023-02-04T14:01:22;7.75;;;2.45;;
70332;SDS011;57747;43.548;-5.704;2023-02-04T14:03:50;6.00;;;2.53;;
70332;SDS011;57747;43.548;-5.704;2023-02-04T14:06:15;4.43;;;2.10;;
70332;SDS011;57747;43.548;-5.704;2023-02-04T14:08:44;6.88;;;2.60;;
70332;SDS011;57747;43.548;-5.704;2023-02-04T14:11:10;7.22;;;1.90;;
70332;SDS011;57747;43.548;-5.704;2023-02-04T14:13:35;7.35;;;2.58;;
70332;SDS011;57747;43.548;-5.704;2023-02-04T14:16:00;5.63;;;2.30;;
70332;SDS011;57747;43.548;-5.704;2023-02-04T14:18:26;7.40;;;2.75;;
70332;SDS011;57747;43.548;-5.704;2023-02-04T14:20:51;5.88;;;2.20;;
70332;SDS011;57747;43.548;-5.704;2023-02-04T14:23:16;2.90;;;1.90;;
70332;SDS011;57747;43.548;-5.704;2023-02-04T14:25:42;8.50;;;1.95;;
70332;SDS011;57747;43.548;-5.704;2023-02-04T14:28:10;11.45;;;2.17;;
70332;SDS011;57747;43.548;-5.704;2023-02-04T14:30:35;6.22;;;2.17;;
70332;SDS011;57747;43.548;-5.704;2023-02-04T14:33:02;7.05;;;1.98;;
70332;SDS011;57747;43.548;-5.704;2023-02-04T14:35:27;8.43;;;2.47;;
70332;SDS011;57747;43.548;-5.704;2023-02-04T14:37:53;5.47;;;1.83;;
70332;SDS011;57747;43.548;-5.704;2023-02-04T14:40:18;7.38;;;2.15;;
70332;SDS011;57747;43.548;-5.704;2023-02-04T14:42:44;6.97;;;2.33;;